This is the latest recevied weather packets stored in our database for station/object F1PPH-2. If no packets are shown the sender has not sent any weather packets the latest 10 day(s).
| Time | Temp. | Humidity | Pressure | Rain* | Wind** | Luminosity | Snow |
|---|---|---|---|---|---|---|---|
| 1777763885 | 17.22° C | 47% | 1005.4 hPa | - | - | - | - |
| 1777760299 | 17.22° C | 48% | 1006 hPa | - | - | - | - |
| 1777753454 | 18.89° C | 45% | 1005.8 hPa | - | - | - | - |
| 1777744093 | 22.78° C | 41% | 1005.6 hPa | - | - | - | - |
| 1777734012 | 26.67° C | 35% | 1007.7 hPa | - | - | - | - |
| 1777731133 | 21.11° C | 37% | 1007.7 hPa | - | - | - | - |
| 1777727532 | 22.22° C | 37% | 1008.9 hPa | - | - | - | - |
| 1777723933 | 30° C | 31% | 1009.6 hPa | - | - | - | - |
| 1777721052 | 21.11° C | 36% | 1008.9 hPa | - | - | - | - |
| 1777717455 | 28.89° C | 31% | 1009.5 hPa | - | - | - | - |
| 1777714574 | 46.67° C | 21% | 1008.4 hPa | - | - | - | - |
| 1777710971 | 42.22° C | 24% | 1009.9 hPa | - | - | - | - |
| 1777707370 | 27.22° C | 36% | 1010.4 hPa | - | - | - | - |
| 1777703772 | 24.44° C | 37% | 1010.4 hPa | - | - | - | - |
| 1777700171 | 16.67° C | 41% | 1010.4 hPa | - | - | - | - |
| 1777696570 | 15° C | 41% | 1010.5 hPa | - | - | - | - |
| 1777685770 | 15.56° C | 40% | 1011.7 hPa | - | - | - | - |
| 1777682168 | 16.11° C | 39% | 1012.2 hPa | - | - | - | - |
| 1777678568 | 16.67° C | 39% | 1012.6 hPa | - | - | - | - |
| 1777675688 | 17.22° C | 38% | 1012.4 hPa | - | - | - | - |
| 1777672087 | 18.89° C | 37% | 1012.7 hPa | - | - | - | - |
| 1777664888 | 21.11° C | 36% | 1012.6 hPa | - | - | - | - |
| 1777661286 | 22.78° C | 35% | 1011.8 hPa | - | - | - | - |
| 1777651206 | 31.67° C | 30% | 1011.4 hPa | - | - | - | - |
| 1777644005 | 36.11° C | 27% | 1012.4 hPa | - | - | - | - |
* Rain since midnight (hover to see other rain measurements)
** Current wind speed in m/s (hover to see current wind gust speed)